Andrews, NC

12:57 AM EDT on May 27, 2015 (GMT -0400)
Blairsville | | Change Station
CLOSE
Current Station
Airport
Location: Blairsville,
Elevation: 1909 ft
Nearby Weather Stations

Elev 1909 ft 34.85 °N, 84.00 °W | Updated 42 minutes ago

Partly Cloudy
Partly Cloudy
62 °F
Feels Like 62 °F
N
0
Wind Variable Wind from North

Today
High -- | Low -- °F
--% Chance of Precip.
Yesterday
High -- | Low -- °F
Precip. -- in
6:24 AM 8:41 PM
Waxing Gibbous, 64% visible
Pressure 30.26 in
Visibility 4.0 miles
Clouds
Dew Point 55 °F
Humidity 78%
Rainfall 0.00 in
Snow Depth Not available.
UV Not available.
Pollen 1.90 out of 12
Air Quality Not available.
Flu Activity No Activity
METAR KDZJ 270415Z AUTO 00000KT 4SM HZ 17/13 A3026 RMK AO2 T01660127

More Conditions Fewer Conditions

Pressure 30.26 in
Visibility 4.0 miles
Clouds
Dew Point 55 °F
Humidity 78%
Rainfall 0.00 in
Snow Depth Not available.
UV Not available.
Pollen 1.90 out of 12
Air Quality Not available.
Flu Activity No Activity
METAR KDZJ 270415Z AUTO 00000KT 4SM HZ 17/13 A3026 RMK AO2 T01660127

More Conditions Fewer Conditions

10-Day Weather Forecast

Almanac

Astronomy

May. 27, 2015 Rise Set
Actual Time
Civil Twilight
Nautical Twilight
Astronomical Twilight
Moon
Length of Visible Light
Length of Day
Tomorrow will be .
, % of the Moon is Illuminated

Today's Extremes

State Highs State Lows

Community

WunderPhotos

Upload Photos

1,824,615 photos uploaded!

WunderBlogs® & News

Nearby

Air Quality

  Air Quality AQ Index Pollutant
Not available.

Snow Depth

Station Depth Elevation

Earthquake Activity

City Distance Mag. Time & Date
Minimum magnitude displayed is 2.5.

Coastal Water Temperatures

Place Temperature

Stations

Nearby Weather Stations

Station Location Temp. Windchill Dew Point Humidity Wind Precip. Elev Updated Type